createdAt,value
2023-03-22T00:03:16.378Z,100576.58
2023-03-22T00:07:20.432Z,100574.53
2023-03-22T00:11:23.928Z,100577.05
2023-03-22T00:15:24.397Z,100581.80
2023-03-22T00:19:35.321Z,100577.04
2023-03-22T00:23:27.923Z,100574.21
2023-03-22T00:27:14.564Z,100569.34
2023-03-22T00:31:00.959Z,100568.73
2023-03-22T00:34:47.929Z,100568.34
2023-03-22T00:38:42.806Z,100570.52
2023-03-22T00:42:30.869Z,100571.83
2023-03-22T00:46:17.949Z,100576.41
2023-03-22T00:50:04.728Z,100578.68
2023-03-22T00:53:51.467Z,100575.98
2023-03-22T00:57:38.873Z,100577.45
2023-03-22T01:01:25.784Z,100578.30
2023-03-22T01:05:14.537Z,100577.54
2023-03-22T01:09:01.283Z,100584.09
2023-03-22T01:12:49.989Z,100578.27
2023-03-22T01:16:36.681Z,100575.04
2023-03-22T01:20:23.751Z,100575.61
2023-03-22T01:24:09.983Z,100579.83
2023-03-22T01:27:56.938Z,100582.95
2023-03-22T01:31:43.724Z,100583.77
2023-03-22T01:35:31.411Z,100586.67
2023-03-22T01:39:19.040Z,100586.65
2023-03-22T01:43:07.462Z,100594.36
2023-03-22T01:46:53.784Z,100603.86
2023-03-22T01:50:40.984Z,100604.79
2023-03-22T01:54:27.712Z,100610.41
2023-03-22T01:58:14.342Z,100607.59
2023-03-22T02:02:06.362Z,100608.13
2023-03-22T02:05:54.261Z,100612.58
2023-03-22T02:09:42.591Z,100615.04
2023-03-22T02:13:47.146Z,100617.79
2023-03-22T02:18:10.711Z,100622.75
2023-03-22T02:22:00.104Z,100623.92
2023-03-22T02:25:46.611Z,100621.55
2023-03-22T02:29:35.873Z,100621.32
2023-03-22T02:33:23.073Z,100627.80
2023-03-22T02:37:10.211Z,100631.96
2023-03-22T02:40:56.272Z,100630.81
2023-03-22T02:44:49.159Z,100639.38
2023-03-22T02:48:32.716Z,100640.83
2023-03-22T02:52:32.784Z,100638.83
2023-03-22T02:56:36.158Z,100644.02
2023-03-22T03:00:34.541Z,100645.88
2023-03-22T03:04:37.552Z,100645.98
2023-03-22T03:08:36.709Z,100647.55
2023-03-22T03:12:38.667Z,100647.49
2023-03-22T03:16:41.758Z,100649.38
2023-03-22T03:20:41.949Z,100657.13
2023-03-22T03:24:45.268Z,100654.52
2023-03-22T03:28:44.797Z,100652.83
2023-03-22T03:32:49.162Z,100649.50
2023-03-22T03:36:55.662Z,100651.42
2023-03-22T03:40:55.913Z,100649.49
2023-03-22T03:45:04.955Z,100655.03
2023-03-22T03:49:05.494Z,100661.30
2023-03-22T03:53:01.972Z,100653.48
2023-03-22T03:57:04.042Z,100656.63
2023-03-22T04:01:02.015Z,100661.42
2023-03-22T04:05:27.592Z,100671.27
2023-03-22T04:09:29.916Z,100671.71
2023-03-22T04:13:33.851Z,100670.99
2023-03-22T04:17:33.509Z,100665.56
2023-03-22T04:21:35.860Z,100668.81
2023-03-22T04:25:32.904Z,100671.34
2023-03-22T04:29:38.407Z,100676.44
2023-03-22T04:33:57.005Z,100684.98
2023-03-22T04:38:04.671Z,100691.75
2023-03-22T04:42:11.470Z,100697.96
2023-03-22T04:46:12.167Z,100700.21
2023-03-22T04:50:15.437Z,100703.00
2023-03-22T04:54:19.815Z,100704.86
2023-03-22T04:58:17.087Z,100710.64
2023-03-22T05:02:14.893Z,100716.29
2023-03-22T05:06:17.396Z,100723.13
2023-03-22T05:10:34.468Z,100726.86
2023-03-22T05:14:36.271Z,100727.73
2023-03-22T05:18:34.092Z,100728.62
2023-03-22T05:22:35.439Z,100732.33
2023-03-22T05:26:32.472Z,100739.63
2023-03-22T05:30:34.026Z,100736.55
2023-03-22T05:34:48.586Z,100747.38
2023-03-22T05:38:57.675Z,100746.08
2023-03-22T05:42:57.141Z,100753.77
2023-03-22T05:47:00.372Z,100755.96
2023-03-22T05:51:03.982Z,100752.84
2023-03-22T05:55:04.496Z,100753.75
2023-03-22T05:59:07.174Z,100753.48
2023-03-22T06:03:09.657Z,100752.88
2023-03-22T06:07:14.383Z,100754.27
2023-03-22T06:11:26.630Z,100759.64
2023-03-22T06:15:26.024Z,100749.72
2023-03-22T06:19:38.557Z,100751.62
2023-03-22T06:23:36.505Z,100750.59
2023-03-22T06:27:37.837Z,100757.59
2023-03-22T06:31:39.612Z,100756.66
2023-03-22T06:35:40.305Z,100761.61
2023-03-22T06:39:42.585Z,100764.27
2023-03-22T06:43:40.328Z,100769.17
2023-03-22T06:47:50.023Z,100776.37
2023-03-22T06:52:11.245Z,100779.57
2023-03-22T06:56:12.076Z,100785.08
2023-03-22T07:00:18.002Z,100788.73
2023-03-22T07:04:19.267Z,100792.13
2023-03-22T07:08:18.325Z,100796.77
2023-03-22T07:12:26.974Z,100798.29
2023-03-22T07:16:28.221Z,100796.71
2023-03-22T07:20:32.710Z,100800.17
2023-03-22T07:24:32.163Z,100799.33
2023-03-22T07:28:54.751Z,100801.11
2023-03-22T07:32:56.617Z,100803.05
2023-03-22T07:37:00.719Z,100800.58
2023-03-22T07:41:05.275Z,100801.95
2023-03-22T07:45:21.281Z,100802.35
2023-03-22T07:50:00.211Z,100796.21
2023-03-22T07:54:07.727Z,100792.39
2023-03-22T07:57:50.247Z,100797.39
2023-03-22T08:01:52.382Z,100797.45
2023-03-22T08:06:01.255Z,100796.52
2023-03-22T08:10:03.414Z,100795.66
2023-03-22T08:14:02.259Z,100797.95
2023-03-22T08:18:07.852Z,100802.25
2023-03-22T08:22:10.448Z,100803.36
2023-03-22T08:26:49.903Z,100802.16
2023-03-22T08:31:09.726Z,100801.63
2023-03-22T08:35:11.361Z,100798.04
2023-03-22T08:39:10.553Z,100800.32
2023-03-22T08:43:26.572Z,100803.64
2023-03-22T08:47:25.750Z,100803.41
2023-03-22T08:51:29.193Z,100800.41
2023-03-22T08:55:48.855Z,100796.95
2023-03-22T09:00:08.163Z,100795.88
2023-03-22T09:04:24.587Z,100792.96
2023-03-22T09:08:25.699Z,100792.09
2023-03-22T09:12:31.710Z,100792.42
2023-03-22T09:16:33.399Z,100786.91
2023-03-22T09:20:35.321Z,100782.95
2023-03-22T09:24:37.532Z,100785.46
2023-03-22T09:28:38.832Z,100782.46
2023-03-22T09:32:37.330Z,100780.75
2023-03-22T09:36:38.694Z,100782.94
2023-03-22T09:40:35.392Z,100786.62
2023-03-22T09:44:36.676Z,100790.23
2023-03-22T09:48:35.814Z,100789.48
2023-03-22T09:52:37.439Z,100793.73
2023-03-22T09:56:34.820Z,100795.23
2023-03-22T10:00:36.114Z,100792.55
2023-03-22T10:04:35.224Z,100788.75
2023-03-22T10:08:36.845Z,100787.73
2023-03-22T10:12:33.932Z,100786.67
2023-03-22T10:16:38.787Z,100783.79
2023-03-22T10:20:36.036Z,100783.20
2023-03-22T10:24:37.464Z,100782.88
2023-03-22T10:28:34.548Z,100774.73
2023-03-22T10:32:37.400Z,100767.64
2023-03-22T10:36:37.714Z,100767.17
2023-03-22T10:40:37.980Z,100763.28
2023-03-22T10:44:34.109Z,100764.00
2023-03-22T10:48:37.376Z,100758.74
2023-03-22T10:52:34.778Z,100762.92
2023-03-22T10:56:35.199Z,100757.38
2023-03-22T11:00:32.653Z,100752.73
2023-03-22T11:04:33.798Z,100753.69
2023-03-22T11:08:30.913Z,100756.42
2023-03-22T11:12:32.598Z,100754.50
2023-03-22T11:16:32.717Z,100747.33
2023-03-22T11:20:38.552Z,100748.02
2023-03-22T11:24:35.700Z,100743.05
2023-03-22T11:28:37.846Z,100747.59
2023-03-22T11:32:34.776Z,100738.67
2023-03-22T11:36:35.899Z,100733.48
2023-03-22T11:40:35.767Z,100731.59
2023-03-22T11:44:36.219Z,100732.23
2023-03-22T11:48:32.547Z,100727.15
2023-03-22T11:52:33.822Z,100728.48
2023-03-22T11:56:31.186Z,100730.66
2023-03-22T12:00:32.325Z,100725.52
2023-03-22T12:04:30.229Z,100722.86
2023-03-22T12:08:30.839Z,100719.39
2023-03-22T12:12:27.942Z,100715.52
2023-03-22T12:16:30.266Z,100716.70
2023-03-22T12:20:27.525Z,100717.41
2023-03-22T12:24:28.492Z,100717.07
2023-03-22T12:28:24.727Z,100707.58
2023-03-22T12:32:26.165Z,100705.66
2023-03-22T12:36:23.139Z,100709.48
2023-03-22T12:40:24.699Z,100710.44
2023-03-22T12:44:21.758Z,100707.30
2023-03-22T12:48:22.452Z,100707.00
2023-03-22T12:52:18.857Z,100705.54
2023-03-22T12:56:19.440Z,100702.97
2023-03-22T13:00:16.857Z,100701.60
2023-03-22T13:04:14.454Z,100701.37
2023-03-22T13:08:15.331Z,100703.08
2023-03-22T13:12:12.194Z,100698.28
2023-03-22T13:16:13.204Z,100701.66
2023-03-22T13:20:10.869Z,100700.45
2023-03-22T13:24:12.098Z,100697.11
2023-03-22T13:28:09.051Z,100699.60
2023-03-22T13:32:10.362Z,100689.77
2023-03-22T13:36:07.574Z,100689.13
2023-03-22T13:40:08.482Z,100684.95
2023-03-22T13:44:06.946Z,100686.02
2023-03-22T13:48:12.808Z,100693.23
2023-03-22T13:52:10.452Z,100696.98
2023-03-22T13:56:11.578Z,100699.39
2023-03-22T14:00:15.084Z,100697.12
2023-03-22T14:04:18.003Z,100696.49
2023-03-22T14:08:15.061Z,100694.17
2023-03-22T14:12:17.735Z,100695.39
2023-03-22T14:16:15.115Z,100695.15
2023-03-22T14:20:15.627Z,100695.17
